Aeroporto :
LOGIN :

Iscrizione | Disclaimer

   EN    FR    IT 

 










Sommario :    VFR   VFR Marginale   IFR   IFR Intensivo   IFR Molto Intensivo
Visibilità : 
Base nubi : 
>= 8 km
>= 3000ft
5 / 8 km
1000 / 3000 ft
1500m / 5 km
500 / 1000 ft
800 / 1500m
200 / 500 ft
< 800m
< 200 ft
Simboli :   Temporali  Nebbia  Neve Forte  Precipitazioni Forti  Vento > 20 kt
SIGMETs :   Varie  Temporali  Ghiacco  Turbolenza  Onda orograficha  Ceneri Vulcaniche






- Altitudine del aeroporto : 1363 ft


ETIC - Grafenwohr Army Air Field

ULTIMO METAR :
  • 291556Z AUTO 04005KT 9999 SCT080 19/01 A3022 RMK AO2 SLP236 T01870008 $

METARs OBSOLETI :
  • 291456Z AUTO 05003KT 9999 FEW080 19/02 A3024 RMK AO2 SLP243 T01870017 57018 $
  • 291356Z AUTO 06005KT 9999 FEW050 SCT080 18/04 A3025 RMK AO2 SLP246 T01830037 $

TAF TAF ETIC
Valido dal 29 a 10 ore il 30 a 16 ore UTC


291000Z 2910/3016 07009KT 9999 SCT040 BKN050 QNH3026INS
BECMG 2919/2920 VRB06KT 9999 FEW030 SCT050 QNH3018INS
BECMG 3009/3010 03009KT 9999 BKN050 BKN070 QNH3016INS TX19/2914Z TN07/3004Z



MetMap, La meteo Aeronautica in un colpo d'occhio ! - Copyright ORBIFLY Dicembre 2007 - Disclaimer

ORBIFLY MET'MAP TEAM :

Programmazione e sviluppo : Alexandra Zaïnal
Concezione : Baudouin d'Aumeries
Aiuto per la programmazione : Marc-Olivier Méhu
Supporto tecnico e logistico : Manuel Goepfert
Aiuto per la traduzione : Arnaldo La Scala

Contatto : metmap@orbifly.com




FONTI E CREDITI :

   NOAA